sensor_id;sensor_type;location;lat;lon;timestamp;P1;durP1;ratioP1;P2;durP2;ratioP2
37715;SDS011;23562;50.540;12.504;2023-08-30T00:02:13;4.37;;;2.60;;
37715;SDS011;23562;50.540;12.504;2023-08-30T00:04:38;4.32;;;3.45;;
37715;SDS011;23562;50.540;12.504;2023-08-30T00:07:03;6.07;;;3.80;;
37715;SDS011;23562;50.540;12.504;2023-08-30T00:09:28;5.85;;;3.22;;
37715;SDS011;23562;50.540;12.504;2023-08-30T00:11:53;6.95;;;4.47;;
37715;SDS011;23562;50.540;12.504;2023-08-30T00:14:18;6.73;;;5.50;;
37715;SDS011;23562;50.540;12.504;2023-08-30T00:16:43;11.17;;;5.90;;
37715;SDS011;23562;50.540;12.504;2023-08-30T00:19:09;7.07;;;6.38;;
37715;SDS011;23562;50.540;12.504;2023-08-30T00:21:34;6.80;;;6.10;;
37715;SDS011;23562;50.540;12.504;2023-08-30T00:23:59;10.50;;;6.17;;
37715;SDS011;23562;50.540;12.504;2023-08-30T00:26:25;8.60;;;5.40;;
37715;SDS011;23562;50.540;12.504;2023-08-30T00:28:50;9.82;;;5.10;;
37715;SDS011;23562;50.540;12.504;2023-08-30T00:31:15;5.55;;;4.90;;
37715;SDS011;23562;50.540;12.504;2023-08-30T00:33:40;6.95;;;4.72;;
37715;SDS011;23562;50.540;12.504;2023-08-30T00:36:06;7.82;;;4.70;;
37715;SDS011;23562;50.540;12.504;2023-08-30T00:38:32;4.80;;;4.30;;
37715;SDS011;23562;50.540;12.504;2023-08-30T00:40:57;6.82;;;4.80;;
37715;SDS011;23562;50.540;12.504;2023-08-30T00:43:23;5.77;;;5.10;;
37715;SDS011;23562;50.540;12.504;2023-08-30T00:45:48;6.28;;;4.47;;
37715;SDS011;23562;50.540;12.504;2023-08-30T00:48:14;5.53;;;4.38;;
37715;SDS011;23562;50.540;12.504;2023-08-30T00:50:40;7.13;;;4.43;;
37715;SDS011;23562;50.540;12.504;2023-08-30T00:53:06;6.22;;;4.70;;
37715;SDS011;23562;50.540;12.504;2023-08-30T00:55:32;6.90;;;5.07;;
37715;SDS011;23562;50.540;12.504;2023-08-30T00:57:58;8.23;;;4.70;;
37715;SDS011;23562;50.540;12.504;2023-08-30T01:00:23;7.65;;;5.07;;
37715;SDS011;23562;50.540;12.504;2023-08-30T01:02:49;6.53;;;5.70;;
37715;SDS011;23562;50.540;12.504;2023-08-30T01:05:14;6.23;;;5.40;;
37715;SDS011;23562;50.540;12.504;2023-08-30T01:07:39;8.38;;;5.68;;
37715;SDS011;23562;50.540;12.504;2023-08-30T01:10:05;9.70;;;5.00;;
37715;SDS011;23562;50.540;12.504;2023-08-30T01:12:33;7.95;;;5.90;;
37715;SDS011;23562;50.540;12.504;2023-08-30T01:17:30;7.72;;;5.28;;
37715;SDS011;23562;50.540;12.504;2023-08-30T01:20:05;7.13;;;5.20;;
37715;SDS011;23562;50.540;12.504;2023-08-30T01:25:36;13.70;;;6.18;;
37715;SDS011;23562;50.540;12.504;2023-08-30T01:28:03;10.70;;;7.47;;
37715;SDS011;23562;50.540;12.504;2023-08-30T01:30:30;12.50;;;9.10;;
37715;SDS011;23562;50.540;12.504;2023-08-30T01:32:56;12.00;;;10.00;;
37715;SDS011;23562;50.540;12.504;2023-08-30T01:35:22;16.88;;;11.60;;
37715;SDS011;23562;50.540;12.504;2023-08-30T01:37:47;14.82;;;11.77;;
37715;SDS011;23562;50.540;12.504;2023-08-30T01:40:13;17.05;;;12.70;;
37715;SDS011;23562;50.540;12.504;2023-08-30T01:42:40;16.98;;;13.35;;
37715;SDS011;23562;50.540;12.504;2023-08-30T01:45:06;19.20;;;14.68;;
37715;SDS011;23562;50.540;12.504;2023-08-30T01:47:33;15.80;;;13.23;;
37715;SDS011;23562;50.540;12.504;2023-08-30T01:49:59;18.58;;;13.98;;
37715;SDS011;23562;50.540;12.504;2023-08-30T01:52:24;21.67;;;15.43;;
37715;SDS011;23562;50.540;12.504;2023-08-30T01:54:50;20.40;;;15.43;;
37715;SDS011;23562;50.540;12.504;2023-08-30T01:57:16;20.65;;;15.50;;
37715;SDS011;23562;50.540;12.504;2023-08-30T01:59:41;23.10;;;16.63;;
37715;SDS011;23562;50.540;12.504;2023-08-30T02:02:06;20.25;;;16.23;;
37715;SDS011;23562;50.540;12.504;2023-08-30T02:04:31;21.83;;;16.43;;
37715;SDS011;23562;50.540;12.504;2023-08-30T02:07:16;26.60;;;18.45;;
37715;SDS011;23562;50.540;12.504;2023-08-30T02:09:46;26.00;;;18.08;;
37715;SDS011;23562;50.540;12.504;2023-08-30T02:12:15;23.95;;;17.25;;
37715;SDS011;23562;50.540;12.504;2023-08-30T02:14:45;25.55;;;18.23;;
37715;SDS011;23562;50.540;12.504;2023-08-30T02:17:12;24.05;;;18.10;;
37715;SDS011;23562;50.540;12.504;2023-08-30T02:19:38;22.10;;;17.17;;
37715;SDS011;23562;50.540;12.504;2023-08-30T02:22:03;22.02;;;17.25;;
37715;SDS011;23562;50.540;12.504;2023-08-30T02:24:28;22.27;;;17.53;;
37715;SDS011;23562;50.540;12.504;2023-08-30T02:26:54;22.00;;;18.45;;
37715;SDS011;23562;50.540;12.504;2023-08-30T02:29:19;22.13;;;16.60;;
37715;SDS011;23562;50.540;12.504;2023-08-30T02:31:44;24.30;;;18.58;;
37715;SDS011;23562;50.540;12.504;2023-08-30T02:34:09;22.50;;;17.73;;
37715;SDS011;23562;50.540;12.504;2023-08-30T02:36:35;23.35;;;18.35;;
37715;SDS011;23562;50.540;12.504;2023-08-30T02:39:00;23.00;;;17.63;;
37715;SDS011;23562;50.540;12.504;2023-08-30T02:41:25;25.17;;;19.52;;
37715;SDS011;23562;50.540;12.504;2023-08-30T02:43:50;25.50;;;18.53;;
37715;SDS011;23562;50.540;12.504;2023-08-30T02:46:15;25.20;;;17.65;;
37715;SDS011;23562;50.540;12.504;2023-08-30T02:48:40;23.70;;;18.50;;
37715;SDS011;23562;50.540;12.504;2023-08-30T02:51:05;23.83;;;18.67;;
37715;SDS011;23562;50.540;12.504;2023-08-30T02:53:31;25.20;;;17.30;;
37715;SDS011;23562;50.540;12.504;2023-08-30T02:55:56;26.50;;;18.63;;
37715;SDS011;23562;50.540;12.504;2023-08-30T02:58:21;25.43;;;19.10;;
37715;SDS011;23562;50.540;12.504;2023-08-30T03:00:46;23.38;;;17.95;;
37715;SDS011;23562;50.540;12.504;2023-08-30T03:03:12;26.95;;;19.00;;
37715;SDS011;23562;50.540;12.504;2023-08-30T03:05:37;23.53;;;19.27;;
37715;SDS011;23562;50.540;12.504;2023-08-30T03:08:02;28.63;;;19.80;;
37715;SDS011;23562;50.540;12.504;2023-08-30T03:10:27;31.45;;;20.00;;
37715;SDS011;23562;50.540;12.504;2023-08-30T03:12:53;27.80;;;20.73;;
37715;SDS011;23562;50.540;12.504;2023-08-30T03:15:18;34.03;;;22.63;;
37715;SDS011;23562;50.540;12.504;2023-08-30T03:17:43;26.67;;;21.73;;
37715;SDS011;23562;50.540;12.504;2023-08-30T03:20:08;26.73;;;21.93;;
37715;SDS011;23562;50.540;12.504;2023-08-30T03:22:34;24.00;;;18.85;;
37715;SDS011;23562;50.540;12.504;2023-08-30T03:24:59;26.17;;;18.63;;
37715;SDS011;23562;50.540;12.504;2023-08-30T03:27:27;22.77;;;18.30;;
37715;SDS011;23562;50.540;12.504;2023-08-30T03:29:54;24.20;;;17.87;;
37715;SDS011;23562;50.540;12.504;2023-08-30T03:32:19;24.60;;;18.27;;
37715;SDS011;23562;50.540;12.504;2023-08-30T03:34:45;24.73;;;18.52;;
37715;SDS011;23562;50.540;12.504;2023-08-30T03:37:10;23.73;;;18.00;;
37715;SDS011;23562;50.540;12.504;2023-08-30T03:39:35;24.65;;;17.27;;
37715;SDS011;23562;50.540;12.504;2023-08-30T03:42:00;23.50;;;17.17;;
37715;SDS011;23562;50.540;12.504;2023-08-30T03:44:26;21.13;;;16.80;;
37715;SDS011;23562;50.540;12.504;2023-08-30T03:46:51;20.83;;;16.10;;
37715;SDS011;23562;50.540;12.504;2023-08-30T03:49:16;20.23;;;17.17;;
37715;SDS011;23562;50.540;12.504;2023-08-30T03:51:41;21.50;;;16.48;;
37715;SDS011;23562;50.540;12.504;2023-08-30T03:54:06;23.73;;;16.80;;
37715;SDS011;23562;50.540;12.504;2023-08-30T03:56:33;22.55;;;16.90;;
37715;SDS011;23562;50.540;12.504;2023-08-30T03:58:58;21.07;;;16.10;;
37715;SDS011;23562;50.540;12.504;2023-08-30T04:01:23;18.85;;;15.68;;
37715;SDS011;23562;50.540;12.504;2023-08-30T04:03:48;21.73;;;15.63;;
37715;SDS011;23562;50.540;12.504;2023-08-30T04:06:14;19.87;;;15.23;;
37715;SDS011;23562;50.540;12.504;2023-08-30T04:08:39;19.85;;;15.80;;
37715;SDS011;23562;50.540;12.504;2023-08-30T04:11:04;20.17;;;15.30;;
37715;SDS011;23562;50.540;12.504;2023-08-30T04:13:29;32.53;;;24.73;;
37715;SDS011;23562;50.540;12.504;2023-08-30T04:15:55;64.77;;;50.17;;
37715;SDS011;23562;50.540;12.504;2023-08-30T04:18:23;29.13;;;23.05;;
37715;SDS011;23562;50.540;12.504;2023-08-30T04:20:48;19.42;;;15.73;;
37715;SDS011;23562;50.540;12.504;2023-08-30T04:23:13;18.63;;;15.03;;
37715;SDS011;23562;50.540;12.504;2023-08-30T04:25:40;18.43;;;15.63;;
37715;SDS011;23562;50.540;12.504;2023-08-30T04:28:05;19.02;;;13.98;;
37715;SDS011;23562;50.540;12.504;2023-08-30T04:30:30;15.57;;;13.83;;
37715;SDS011;23562;50.540;12.504;2023-08-30T04:32:56;17.77;;;14.23;;
37715;SDS011;23562;50.540;12.504;2023-08-30T04:35:21;16.93;;;12.83;;
37715;SDS011;23562;50.540;12.504;2023-08-30T04:37:46;15.43;;;12.25;;
37715;SDS011;23562;50.540;12.504;2023-08-30T04:40:13;17.08;;;13.25;;
37715;SDS011;23562;50.540;12.504;2023-08-30T04:42:38;17.15;;;13.18;;
37715;SDS011;23562;50.540;12.504;2023-08-30T04:45:05;12.93;;;11.57;;
37715;SDS011;23562;50.540;12.504;2023-08-30T04:47:30;19.88;;;14.75;;
37715;SDS011;23562;50.540;12.504;2023-08-30T04:49:56;17.52;;;14.02;;
37715;SDS011;23562;50.540;12.504;2023-08-30T04:52:21;17.33;;;13.75;;
37715;SDS011;23562;50.540;12.504;2023-08-30T04:54:46;15.82;;;12.50;;
37715;SDS011;23562;50.540;12.504;2023-08-30T04:57:13;13.65;;;11.82;;
37715;SDS011;23562;50.540;12.504;2023-08-30T04:59:45;14.02;;;11.55;;
37715;SDS011;23562;50.540;12.504;2023-08-30T05:02:10;17.38;;;12.15;;
37715;SDS011;23562;50.540;12.504;2023-08-30T05:04:36;16.88;;;11.38;;
37715;SDS011;23562;50.540;12.504;2023-08-30T05:07:01;14.82;;;11.52;;
37715;SDS011;23562;50.540;12.504;2023-08-30T05:09:27;14.88;;;11.63;;
37715;SDS011;23562;50.540;12.504;2023-08-30T05:11:52;18.33;;;12.27;;
37715;SDS011;23562;50.540;12.504;2023-08-30T05:14:18;16.05;;;11.30;;
37715;SDS011;23562;50.540;12.504;2023-08-30T05:16:43;13.75;;;11.25;;
37715;SDS011;23562;50.540;12.504;2023-08-30T05:19:09;12.52;;;10.65;;
37715;SDS011;23562;50.540;12.504;2023-08-30T05:21:34;12.17;;;10.87;;
37715;SDS011;23562;50.540;12.504;2023-08-30T05:23:59;14.23;;;10.97;;
37715;SDS011;23562;50.540;12.504;2023-08-30T05:26:24;13.27;;;10.75;;
37715;SDS011;23562;50.540;12.504;2023-08-30T05:28:49;17.00;;;10.73;;
37715;SDS011;23562;50.540;12.504;2023-08-30T05:31:14;12.50;;;10.27;;
37715;SDS011;23562;50.540;12.504;2023-08-30T05:33:39;12.73;;;10.45;;
37715;SDS011;23562;50.540;12.504;2023-08-30T05:36:08;13.90;;;11.15;;
37715;SDS011;23562;50.540;12.504;2023-08-30T05:38:33;16.98;;;10.30;;
37715;SDS011;23562;50.540;12.504;2023-08-30T05:40:58;16.73;;;12.50;;
37715;SDS011;23562;50.540;12.504;2023-08-30T05:43:23;13.70;;;11.85;;
37715;SDS011;23562;50.540;12.504;2023-08-30T05:45:49;13.67;;;11.10;;
37715;SDS011;23562;50.540;12.504;2023-08-30T05:48:14;16.97;;;11.13;;
37715;SDS011;23562;50.540;12.504;2023-08-30T05:50:39;13.60;;;10.10;;
37715;SDS011;23562;50.540;12.504;2023-08-30T05:53:05;13.05;;;10.32;;
37715;SDS011;23562;50.540;12.504;2023-08-30T05:55:31;13.73;;;10.00;;
37715;SDS011;23562;50.540;12.504;2023-08-30T05:57:56;11.70;;;8.80;;
37715;SDS011;23562;50.540;12.504;2023-08-30T06:00:21;12.20;;;9.87;;
37715;SDS011;23562;50.540;12.504;2023-08-30T06:02:47;15.85;;;9.82;;
37715;SDS011;23562;50.540;12.504;2023-08-30T06:05:12;17.25;;;10.48;;
37715;SDS011;23562;50.540;12.504;2023-08-30T06:07:37;14.20;;;11.32;;
37715;SDS011;23562;50.540;12.504;2023-08-30T06:10:02;15.67;;;10.33;;
37715;SDS011;23562;50.540;12.504;2023-08-30T06:12:28;15.10;;;10.70;;
37715;SDS011;23562;50.540;12.504;2023-08-30T06:14:53;12.38;;;10.68;;
37715;SDS011;23562;50.540;12.504;2023-08-30T06:17:19;14.53;;;11.10;;
37715;SDS011;23562;50.540;12.504;2023-08-30T06:19:44;11.27;;;9.77;;
37715;SDS011;23562;50.540;12.504;2023-08-30T06:22:09;10.20;;;8.77;;
37715;SDS011;23562;50.540;12.504;2023-08-30T06:24:35;12.93;;;9.68;;
37715;SDS011;23562;50.540;12.504;2023-08-30T06:27:00;11.20;;;8.93;;
37715;SDS011;23562;50.540;12.504;2023-08-30T06:29:25;9.63;;;8.70;;
37715;SDS011;23562;50.540;12.504;2023-08-30T06:31:50;10.70;;;8.80;;
37715;SDS011;23562;50.540;12.504;2023-08-30T06:34:15;10.50;;;8.93;;
37715;SDS011;23562;50.540;12.504;2023-08-30T06:36:41;10.70;;;8.43;;
37715;SDS011;23562;50.540;12.504;2023-08-30T06:39:06;11.53;;;8.30;;
37715;SDS011;23562;50.540;12.504;2023-08-30T06:41:31;10.83;;;8.80;;
37715;SDS011;23562;50.540;12.504;2023-08-30T06:43:57;10.53;;;8.10;;
37715;SDS011;23562;50.540;12.504;2023-08-30T06:46:23;12.45;;;8.98;;
37715;SDS011;23562;50.540;12.504;2023-08-30T06:48:48;9.43;;;8.43;;
37715;SDS011;23562;50.540;12.504;2023-08-30T06:51:13;10.90;;;8.95;;
37715;SDS011;23562;50.540;12.504;2023-08-30T06:53:38;10.02;;;8.77;;
37715;SDS011;23562;50.540;12.504;2023-08-30T06:56:04;10.23;;;8.33;;
37715;SDS011;23562;50.540;12.504;2023-08-30T06:58:29;14.53;;;8.73;;
37715;SDS011;23562;50.540;12.504;2023-08-30T07:00:56;13.02;;;9.75;;
37715;SDS011;23562;50.540;12.504;2023-08-30T07:03:21;16.88;;;10.30;;
37715;SDS011;23562;50.540;12.504;2023-08-30T07:05:46;12.02;;;9.07;;
37715;SDS011;23562;50.540;12.504;2023-08-30T07:08:14;12.88;;;9.00;;
37715;SDS011;23562;50.540;12.504;2023-08-30T07:10:40;14.88;;;9.02;;
37715;SDS011;23562;50.540;12.504;2023-08-30T07:13:05;13.55;;;8.65;;
37715;SDS011;23562;50.540;12.504;2023-08-30T07:15:35;13.45;;;9.27;;
37715;SDS011;23562;50.540;12.504;2023-08-30T07:18:00;13.93;;;8.77;;
37715;SDS011;23562;50.540;12.504;2023-08-30T07:20:25;9.27;;;8.18;;
37715;SDS011;23562;50.540;12.504;2023-08-30T07:22:50;11.07;;;9.65;;
37715;SDS011;23562;50.540;12.504;2023-08-30T07:25:16;11.70;;;8.67;;
37715;SDS011;23562;50.540;12.504;2023-08-30T07:27:41;14.60;;;8.60;;
37715;SDS011;23562;50.540;12.504;2023-08-30T07:30:06;10.80;;;8.77;;
37715;SDS011;23562;50.540;12.504;2023-08-30T07:32:32;9.45;;;8.02;;
37715;SDS011;23562;50.540;12.504;2023-08-30T07:34:57;9.82;;;8.82;;
37715;SDS011;23562;50.540;12.504;2023-08-30T07:37:22;9.60;;;7.68;;
37715;SDS011;23562;50.540;12.504;2023-08-30T07:39:48;13.13;;;8.90;;
37715;SDS011;23562;50.540;12.504;2023-08-30T07:42:13;9.32;;;8.35;;
37715;SDS011;23562;50.540;12.504;2023-08-30T07:44:39;19.02;;;10.25;;
37715;SDS011;23562;50.540;12.504;2023-08-30T07:47:04;12.70;;;8.80;;
37715;SDS011;23562;50.540;12.504;2023-08-30T07:49:29;15.70;;;8.77;;
37715;SDS011;23562;50.540;12.504;2023-08-30T07:51:54;10.90;;;8.48;;
37715;SDS011;23562;50.540;12.504;2023-08-30T07:54:20;8.68;;;7.88;;
37715;SDS011;23562;50.540;12.504;2023-08-30T07:56:45;9.57;;;8.43;;
37715;SDS011;23562;50.540;12.504;2023-08-30T07:59:10;9.23;;;7.38;;
37715;SDS011;23562;50.540;12.504;2023-08-30T08:01:35;11.18;;;8.05;;
37715;SDS011;23562;50.540;12.504;2023-08-30T08:04:00;10.73;;;8.85;;
37715;SDS011;23562;50.540;12.504;2023-08-30T08:06:25;9.88;;;7.68;;
37715;SDS011;23562;50.540;12.504;2023-08-30T08:08:51;12.67;;;9.93;;
37715;SDS011;23562;50.540;12.504;2023-08-30T08:11:16;11.88;;;9.00;;
37715;SDS011;23562;50.540;12.504;2023-08-30T08:13:41;12.07;;;9.13;;
37715;SDS011;23562;50.540;12.504;2023-08-30T08:16:07;9.75;;;8.70;;
37715;SDS011;23562;50.540;12.504;2023-08-30T08:18:32;16.17;;;10.07;;
37715;SDS011;23562;50.540;12.504;2023-08-30T08:20:57;12.00;;;9.20;;
37715;SDS011;23562;50.540;12.504;2023-08-30T08:23:22;14.32;;;9.50;;
37715;SDS011;23562;50.540;12.504;2023-08-30T08:25:48;13.77;;;8.52;;
37715;SDS011;23562;50.540;12.504;2023-08-30T08:28:13;10.02;;;8.52;;
37715;SDS011;23562;50.540;12.504;2023-08-30T08:30:38;11.30;;;8.98;;
37715;SDS011;23562;50.540;12.504;2023-08-30T08:33:03;13.80;;;7.90;;
37715;SDS011;23562;50.540;12.504;2023-08-30T08:35:28;7.67;;;6.87;;
37715;SDS011;23562;50.540;12.504;2023-08-30T08:37:54;10.43;;;7.50;;
37715;SDS011;23562;50.540;12.504;2023-08-30T08:40:19;6.97;;;5.57;;
37715;SDS011;23562;50.540;12.504;2023-08-30T08:42:44;11.70;;;7.93;;
37715;SDS011;23562;50.540;12.504;2023-08-30T08:45:10;9.68;;;7.00;;
37715;SDS011;23562;50.540;12.504;2023-08-30T08:47:36;15.27;;;9.55;;
37715;SDS011;23562;50.540;12.504;2023-08-30T08:50:02;9.35;;;8.00;;
37715;SDS011;23562;50.540;12.504;2023-08-30T08:52:30;8.57;;;7.68;;
37715;SDS011;23562;50.540;12.504;2023-08-30T08:54:55;14.00;;;7.35;;
37715;SDS011;23562;50.540;12.504;2023-08-30T08:57:21;10.20;;;7.22;;
37715;SDS011;23562;50.540;12.504;2023-08-30T08:59:46;13.45;;;6.70;;
37715;SDS011;23562;50.540;12.504;2023-08-30T09:02:12;10.02;;;7.10;;
37715;SDS011;23562;50.540;12.504;2023-08-30T09:04:38;16.05;;;11.57;;
37715;SDS011;23562;50.540;12.504;2023-08-30T09:07:04;10.30;;;7.25;;
37715;SDS011;23562;50.540;12.504;2023-08-30T09:09:29;7.38;;;6.13;;
37715;SDS011;23562;50.540;12.504;2023-08-30T09:11:55;7.05;;;6.00;;
37715;SDS011;23562;50.540;12.504;2023-08-30T09:14:20;9.98;;;7.00;;
37715;SDS011;23562;50.540;12.504;2023-08-30T09:16:55;8.80;;;5.17;;
37715;SDS011;23562;50.540;12.504;2023-08-30T09:19:21;5.72;;;4.05;;
37715;SDS011;23562;50.540;12.504;2023-08-30T09:21:53;5.82;;;3.85;;
37715;SDS011;23562;50.540;12.504;2023-08-30T09:24:19;6.78;;;4.68;;
37715;SDS011;23562;50.540;12.504;2023-08-30T09:26:51;7.20;;;4.40;;
37715;SDS011;23562;50.540;12.504;2023-08-30T09:29:17;6.03;;;4.00;;
37715;SDS011;23562;50.540;12.504;2023-08-30T09:31:42;3.97;;;3.25;;
37715;SDS011;23562;50.540;12.504;2023-08-30T09:34:08;8.52;;;4.40;;
37715;SDS011;23562;50.540;12.504;2023-08-30T09:36:34;6.88;;;4.13;;
37715;SDS011;23562;50.540;12.504;2023-08-30T09:39:02;8.50;;;4.45;;
37715;SDS011;23562;50.540;12.504;2023-08-30T09:41:28;5.07;;;3.78;;
37715;SDS011;23562;50.540;12.504;2023-08-30T09:43:53;7.32;;;3.60;;
37715;SDS011;23562;50.540;12.504;2023-08-30T09:46:19;5.90;;;3.00;;
37715;SDS011;23562;50.540;12.504;2023-08-30T09:48:44;4.03;;;2.90;;
37715;SDS011;23562;50.540;12.504;2023-08-30T09:51:09;2.60;;;2.10;;
37715;SDS011;23562;50.540;12.504;2023-08-30T09:53:37;3.55;;;3.17;;
37715;SDS011;23562;50.540;12.504;2023-08-30T09:56:10;6.05;;;3.30;;
37715;SDS011;23562;50.540;12.504;2023-08-30T09:58:37;3.97;;;2.50;;
37715;SDS011;23562;50.540;12.504;2023-08-30T10:01:03;5.68;;;2.90;;
37715;SDS011;23562;50.540;12.504;2023-08-30T10:03:30;3.78;;;2.90;;
37715;SDS011;23562;50.540;12.504;2023-08-30T10:05:55;3.00;;;2.70;;
37715;SDS011;23562;50.540;12.504;2023-08-30T10:08:21;3.42;;;2.85;;
37715;SDS011;23562;50.540;12.504;2023-08-30T10:10:46;5.95;;;3.08;;
37715;SDS011;23562;50.540;12.504;2023-08-30T10:13:11;4.10;;;2.50;;
37715;SDS011;23562;50.540;12.504;2023-08-30T10:15:39;4.57;;;2.42;;
37715;SDS011;23562;50.540;12.504;2023-08-30T10:18:05;3.85;;;2.75;;
37715;SDS011;23562;50.540;12.504;2023-08-30T10:20:32;4.40;;;2.55;;
37715;SDS011;23562;50.540;12.504;2023-08-30T10:22:57;2.75;;;2.10;;
37715;SDS011;23562;50.540;12.504;2023-08-30T10:25:24;3.25;;;2.10;;
37715;SDS011;23562;50.540;12.504;2023-08-30T10:27:51;2.97;;;2.38;;
37715;SDS011;23562;50.540;12.504;2023-08-30T10:30:18;3.90;;;2.55;;
37715;SDS011;23562;50.540;12.504;2023-08-30T10:32:44;2.90;;;2.38;;
37715;SDS011;23562;50.540;12.504;2023-08-30T10:35:13;3.83;;;2.08;;
37715;SDS011;23562;50.540;12.504;2023-08-30T10:37:39;3.10;;;2.10;;
37715;SDS011;23562;50.540;12.504;2023-08-30T10:40:04;4.47;;;2.40;;
37715;SDS011;23562;50.540;12.504;2023-08-30T10:42:31;2.70;;;2.25;;
37715;SDS011;23562;50.540;12.504;2023-08-30T10:44:57;4.28;;;2.63;;
37715;SDS011;23562;50.540;12.504;2023-08-30T10:47:29;4.32;;;2.15;;
37715;SDS011;23562;50.540;12.504;2023-08-30T10:49:55;2.97;;;2.10;;
37715;SDS011;23562;50.540;12.504;2023-08-30T10:52:20;4.50;;;2.35;;
37715;SDS011;23562;50.540;12.504;2023-08-30T10:54:46;4.97;;;2.40;;
37715;SDS011;23562;50.540;12.504;2023-08-30T10:57:14;3.58;;;1.90;;
37715;SDS011;23562;50.540;12.504;2023-08-30T10:59:40;2.50;;;2.10;;
37715;SDS011;23562;50.540;12.504;2023-08-30T11:02:05;2.40;;;2.03;;
37715;SDS011;23562;50.540;12.504;2023-08-30T11:04:31;4.00;;;2.17;;
37715;SDS011;23562;50.540;12.504;2023-08-30T11:06:56;3.28;;;2.25;;
37715;SDS011;23562;50.540;12.504;2023-08-30T11:09:22;3.50;;;1.90;;
37715;SDS011;23562;50.540;12.504;2023-08-30T11:11:48;2.80;;;1.98;;
37715;SDS011;23562;50.540;12.504;2023-08-30T11:14:14;3.78;;;2.22;;
37715;SDS011;23562;50.540;12.504;2023-08-30T11:16:39;3.97;;;2.40;;
37715;SDS011;23562;50.540;12.504;2023-08-30T11:19:05;4.25;;;2.45;;
37715;SDS011;23562;50.540;12.504;2023-08-30T11:21:30;4.15;;;2.20;;
37715;SDS011;23562;50.540;12.504;2023-08-30T11:23:56;2.45;;;2.00;;
37715;SDS011;23562;50.540;12.504;2023-08-30T11:26:21;2.83;;;1.95;;
37715;SDS011;23562;50.540;12.504;2023-08-30T11:28:46;2.78;;;2.15;;
37715;SDS011;23562;50.540;12.504;2023-08-30T11:31:19;2.63;;;2.17;;
37715;SDS011;23562;50.540;12.504;2023-08-30T11:33:50;4.10;;;2.30;;
37715;SDS011;23562;50.540;12.504;2023-08-30T11:36:17;2.97;;;2.17;;
37715;SDS011;23562;50.540;12.504;2023-08-30T11:38:42;5.18;;;2.47;;
37715;SDS011;23562;50.540;12.504;2023-08-30T11:41:08;4.20;;;2.40;;
37715;SDS011;23562;50.540;12.504;2023-08-30T11:43:33;2.72;;;2.25;;
37715;SDS011;23562;50.540;12.504;2023-08-30T11:45:59;3.63;;;2.50;;
37715;SDS011;23562;50.540;12.504;2023-08-30T11:48:24;4.30;;;2.47;;
37715;SDS011;23562;50.540;12.504;2023-08-30T11:50:49;5.35;;;2.55;;
37715;SDS011;23562;50.540;12.504;2023-08-30T11:53:14;3.30;;;2.17;;
37715;SDS011;23562;50.540;12.504;2023-08-30T11:55:40;5.75;;;2.38;;
37715;SDS011;23562;50.540;12.504;2023-08-30T11:58:06;5.03;;;2.38;;
37715;SDS011;23562;50.540;12.504;2023-08-30T12:00:33;4.07;;;2.10;;
37715;SDS011;23562;50.540;12.504;2023-08-30T12:02:59;2.83;;;1.90;;
37715;SDS011;23562;50.540;12.504;2023-08-30T12:05:24;3.70;;;2.47;;
37715;SDS011;23562;50.540;12.504;2023-08-30T12:07:51;4.28;;;2.17;;
37715;SDS011;23562;50.540;12.504;2023-08-30T12:10:17;6.00;;;2.27;;
37715;SDS011;23562;50.540;12.504;2023-08-30T12:12:46;2.47;;;1.65;;
37715;SDS011;23562;50.540;12.504;2023-08-30T12:15:12;6.00;;;2.10;;
37715;SDS011;23562;50.540;12.504;2023-08-30T12:17:37;2.33;;;1.60;;
37715;SDS011;23562;50.540;12.504;2023-08-30T12:20:02;3.47;;;1.90;;
37715;SDS011;23562;50.540;12.504;2023-08-30T12:22:40;4.07;;;1.92;;
37715;SDS011;23562;50.540;12.504;2023-08-30T12:25:18;3.30;;;2.00;;
37715;SDS011;23562;50.540;12.504;2023-08-30T12:27:43;2.60;;;1.75;;
37715;SDS011;23562;50.540;12.504;2023-08-30T12:30:09;3.20;;;2.10;;
37715;SDS011;23562;50.540;12.504;2023-08-30T12:32:34;2.78;;;1.67;;
37715;SDS011;23562;50.540;12.504;2023-08-30T12:34:59;2.93;;;1.97;;
37715;SDS011;23562;50.540;12.504;2023-08-30T12:37:24;3.37;;;1.70;;
37715;SDS011;23562;50.540;12.504;2023-08-30T12:39:49;4.47;;;2.35;;
37715;SDS011;23562;50.540;12.504;2023-08-30T12:42:14;3.00;;;1.80;;
37715;SDS011;23562;50.540;12.504;2023-08-30T12:44:39;6.43;;;2.07;;
37715;SDS011;23562;50.540;12.504;2023-08-30T12:47:05;3.92;;;2.13;;
37715;SDS011;23562;50.540;12.504;2023-08-30T12:49:30;3.63;;;1.90;;
37715;SDS011;23562;50.540;12.504;2023-08-30T12:51:55;5.17;;;1.70;;
37715;SDS011;23562;50.540;12.504;2023-08-30T12:54:20;2.80;;;1.90;;
37715;SDS011;23562;50.540;12.504;2023-08-30T12:56:45;2.85;;;1.98;;
37715;SDS011;23562;50.540;12.504;2023-08-30T12:59:11;2.10;;;1.90;;
37715;SDS011;23562;50.540;12.504;2023-08-30T13:01:36;2.60;;;2.30;;
37715;SDS011;23562;50.540;12.504;2023-08-30T13:04:01;2.50;;;2.00;;
37715;SDS011;23562;50.540;12.504;2023-08-30T13:06:26;2.50;;;2.00;;
37715;SDS011;23562;50.540;12.504;2023-08-30T13:08:51;2.58;;;1.80;;
37715;SDS011;23562;50.540;12.504;2023-08-30T13:11:16;2.65;;;1.80;;
37715;SDS011;23562;50.540;12.504;2023-08-30T13:13:42;2.83;;;2.00;;
37715;SDS011;23562;50.540;12.504;2023-08-30T13:16:07;2.40;;;2.00;;
37715;SDS011;23562;50.540;12.504;2023-08-30T13:18:32;2.53;;;2.28;;
37715;SDS011;23562;50.540;12.504;2023-08-30T13:20:57;3.25;;;2.10;;
37715;SDS011;23562;50.540;12.504;2023-08-30T13:23:22;6.47;;;2.57;;
37715;SDS011;23562;50.540;12.504;2023-08-30T13:25:47;3.97;;;2.47;;
37715;SDS011;23562;50.540;12.504;2023-08-30T13:28:14;2.92;;;2.17;;
37715;SDS011;23562;50.540;12.504;2023-08-30T13:30:43;3.90;;;2.07;;
37715;SDS011;23562;50.540;12.504;2023-08-30T13:33:08;3.87;;;1.80;;
37715;SDS011;23562;50.540;12.504;2023-08-30T13:35:33;2.85;;;2.30;;
37715;SDS011;23562;50.540;12.504;2023-08-30T13:37:59;2.40;;;2.03;;
37715;SDS011;23562;50.540;12.504;2023-08-30T13:40:24;4.20;;;2.17;;
37715;SDS011;23562;50.540;12.504;2023-08-30T13:42:50;3.33;;;2.60;;
37715;SDS011;23562;50.540;12.504;2023-08-30T13:45:15;4.63;;;3.40;;
37715;SDS011;23562;50.540;12.504;2023-08-30T13:47:42;5.87;;;2.57;;
37715;SDS011;23562;50.540;12.504;2023-08-30T13:50:08;2.90;;;2.30;;
37715;SDS011;23562;50.540;12.504;2023-08-30T13:52:33;3.05;;;2.30;;
37715;SDS011;23562;50.540;12.504;2023-08-30T13:54:59;5.00;;;2.58;;
37715;SDS011;23562;50.540;12.504;2023-08-30T13:57:24;6.23;;;3.90;;
37715;SDS011;23562;50.540;12.504;2023-08-30T13:59:49;3.72;;;2.78;;
37715;SDS011;23562;50.540;12.504;2023-08-30T14:02:14;6.27;;;2.70;;
37715;SDS011;23562;50.540;12.504;2023-08-30T14:04:39;4.32;;;2.38;;
37715;SDS011;23562;50.540;12.504;2023-08-30T14:07:04;3.73;;;2.87;;
37715;SDS011;23562;50.540;12.504;2023-08-30T14:09:29;3.87;;;3.47;;
37715;SDS011;23562;50.540;12.504;2023-08-30T14:11:55;6.13;;;2.77;;
37715;SDS011;23562;50.540;12.504;2023-08-30T14:14:20;6.38;;;4.47;;
37715;SDS011;23562;50.540;12.504;2023-08-30T14:16:45;7.13;;;4.68;;
37715;SDS011;23562;50.540;12.504;2023-08-30T14:19:11;8.03;;;6.27;;
37715;SDS011;23562;50.540;12.504;2023-08-30T14:21:36;8.65;;;6.05;;